MSC Clea — CQID6 — position and weather

sailwx.info

Track history (hours):
 
Tides and Currents Weather Stations Pressure Air Temp Water Temp Dewpoint Dewpoint Depression Visibility Wind Speed Wind Dir Waves Ship Positions

MSC Clea

Last reported at 2018-Jul-15 15:20 UTC. Time now 2018-Jul-22 16:36 UTC.
Position N 09°11' W 079°52'.

Length 300 m; draft 13.6 m.

Type: Cargo ship. MMSI: 255805930.

Date/timePositionNaut miles runAvg speedWind from/ knotsBaromVisibWave heightAir tempDewpointWater temp
2018-Jul-15 15:20N 09°11' W 079°52'4 8.5
2018-Jul-15 14:53N 09°13' W 079°55'3 5.4
2018-Jul-15 14:19N 09°16' W 079°55'0 0.7
2018-Jul-15 13:53N 09°16' W 079°55'0 0.5
2018-Jul-15 13:23N 09°16' W 079°55'0 0.2
2018-Jul-15 12:59N 09°16' W 079°55'0 0.3
2018-Jul-15 12:30N 09°17' W 079°55'0 0.6
2018-Jul-15 11:54N 09°17' W 079°55'1 1.6
2018-Jul-15 11:30N 09°17' W 079°55'3 6.7
2018-Jul-15 11:00N 09°21' W 079°55'1 1.3
2018-Jul-15 10:29N 09°21' W 079°54'0 0.0
2018-Jul-15 09:59N 09°21' W 079°54'0 0.0
2018-Jul-15 09:29N 09°21' W 079°54'0 0.0
2018-Jul-15 08:59N 09°21' W 079°54'0 0.0
2018-Jul-15 08:29N 09°21' W 079°54'0 0.4
2018-Jul-15 07:59N 09°21' W 079°55'0 0.0
2018-Jul-15 07:29N 09°21' W 079°55'0 0.5
2018-Jul-15 06:59N 09°21' W 079°54'0 0.0
2018-Jul-15 06:29N 09°21' W 079°54'0 0.0
2018-Jul-15 05:59N 09°21' W 079°54'0 0.0
2018-Jul-15 05:29N 09°21' W 079°54'0 0.0
2018-Jul-15 04:59N 09°21' W 079°54'0 0.0
2018-Jul-15 04:29N 09°21' W 079°54'0 0.0
2018-Jul-15 03:59N 09°21' W 079°54'0 0.0
2018-Jul-15 03:29N 09°21' W 079°54'0 0.0
2018-Jul-15 02:59N 09°21' W 079°54'0 0.0
2018-Jul-15 02:29N 09°21' W 079°54'0 0.0
2018-Jul-15 01:59N 09°21' W 079°54'0 0.0
2018-Jul-15 01:29N 09°21' W 079°54'0 0.0
2018-Jul-15 00:59N 09°21' W 079°54'0 0.0
2018-Jul-15 00:29N 09°21' W 079°54'0 0.0
2018-Jul-15 00:00N 09°21' W 079°54'0 1.0
2018-Jul-14 23:30N 09°21' W 079°55'2 4.3
2018-Jul-14 23:00N 09°23' W 079°55'4 8.8
2018-Jul-14 22:30N 09°27' W 079°54'3 5.3
2018-Jul-14 22:00N 09°29' W 079°52'1 2.2
2018-Jul-14 21:30N 09°29' W 079°53'2 4.5
2018-Jul-14 21:00N 09°28' W 079°54'0 0.6
2018-Jul-14 20:30N 09°28' W 079°54'0 0.7
2018-Jul-14 20:00N 09°28' W 079°54'0 0.8
2018-Jul-14 19:29N 09°28' W 079°53'0 0.9
2018-Jul-14 19:00N 09°29' W 079°53'1 1.3
2018-Jul-14 18:30N 09°29' W 079°54'3 6.9
2018-Jul-14 18:00N 09°33' W 079°53'511.0
2018-Jul-14 17:30N 09°38' W 079°52'  
2018-Jul-07 04:13N 35°59' W 025°55'419.4
2018-Jul-07 04:00N 35°60' W 025°50'1019.3
2018-Jul-07 03:30N 36°02' W 025°39'1019.5
2018-Jul-07 03:00N 36°04' W 025°27'1019.5
2018-Jul-07 02:30N 36°06' W 025°15'1019.6
2018-Jul-07 02:01N 36°08' W 025°03'1019.6
2018-Jul-07 01:31N 36°10' W 024°52'1019.6
2018-Jul-07 01:00N 36°13' W 024°40'1019.3
2018-Jul-07 00:30N 36°15' W 024°28'1019.4
2018-Jul-07 00:01N 36°18' W 024°17'1019.4
2018-Jul-06 23:30N 36°20' W 024°05'1019.3
2018-Jul-06 23:00N 36°22' W 023°53'1019.4
2018-Jul-06 22:31N 36°24' W 023°41'1019.3
2018-Jul-06 22:00N 36°25' W 023°29'1019.5
2018-Jul-06 21:30N 36°27' W 023°17'1019.3
2018-Jul-06 21:01N 36°29' W 023°06'  
Track history (hours):
 
Tides and Currents Weather Stations Pressure Air Temp Water Temp Dewpoint Dewpoint Depression Visibility Wind Speed Wind Dir Waves Ship Positions

MSC Clea

Last reported at 2018-Jul-15 15:20 UTC. Time now 2018-Jul-22 16:36 UTC.
Position N 09°11' W 079°52'.

Length 300 m; draft 13.6 m.

Type: Cargo ship. MMSI: 255805930.

Date/timePositionNaut miles runAvg speedWind from/ knotsBaromVisibWave heightAir tempDewpointWater temp
2018-Jul-15 15:20N 09°11' W 079°52'4 8.5
2018-Jul-15 14:53N 09°13' W 079°55'3 5.4
2018-Jul-15 14:19N 09°16' W 079°55'0 0.7
2018-Jul-15 13:53N 09°16' W 079°55'0 0.5
2018-Jul-15 13:23N 09°16' W 079°55'0 0.2
2018-Jul-15 12:59N 09°16' W 079°55'0 0.3
2018-Jul-15 12:30N 09°17' W 079°55'0 0.6
2018-Jul-15 11:54N 09°17' W 079°55'1 1.6
2018-Jul-15 11:30N 09°17' W 079°55'3 6.7
2018-Jul-15 11:00N 09°21' W 079°55'1 1.3
2018-Jul-15 10:29N 09°21' W 079°54'0 0.0
2018-Jul-15 09:59N 09°21' W 079°54'0 0.0
2018-Jul-15 09:29N 09°21' W 079°54'0 0.0
2018-Jul-15 08:59N 09°21' W 079°54'0 0.0
2018-Jul-15 08:29N 09°21' W 079°54'0 0.4
2018-Jul-15 07:59N 09°21' W 079°55'0 0.0
2018-Jul-15 07:29N 09°21' W 079°55'0 0.5
2018-Jul-15 06:59N 09°21' W 079°54'0 0.0
2018-Jul-15 06:29N 09°21' W 079°54'0 0.0
2018-Jul-15 05:59N 09°21' W 079°54'0 0.0
2018-Jul-15 05:29N 09°21' W 079°54'0 0.0
2018-Jul-15 04:59N 09°21' W 079°54'0 0.0
2018-Jul-15 04:29N 09°21' W 079°54'0 0.0
2018-Jul-15 03:59N 09°21' W 079°54'0 0.0
2018-Jul-15 03:29N 09°21' W 079°54'0 0.0
2018-Jul-15 02:59N 09°21' W 079°54'0 0.0
2018-Jul-15 02:29N 09°21' W 079°54'0 0.0
2018-Jul-15 01:59N 09°21' W 079°54'0 0.0
2018-Jul-15 01:29N 09°21' W 079°54'0 0.0
2018-Jul-15 00:59N 09°21' W 079°54'0 0.0
2018-Jul-15 00:29N 09°21' W 079°54'0 0.0
2018-Jul-15 00:00N 09°21' W 079°54'0 1.0
2018-Jul-14 23:30N 09°21' W 079°55'2 4.3
2018-Jul-14 23:00N 09°23' W 079°55'4 8.8
2018-Jul-14 22:30N 09°27' W 079°54'3 5.3
2018-Jul-14 22:00N 09°29' W 079°52'1 2.2
2018-Jul-14 21:30N 09°29' W 079°53'2 4.5
2018-Jul-14 21:00N 09°28' W 079°54'0 0.6
2018-Jul-14 20:30N 09°28' W 079°54'0 0.7
2018-Jul-14 20:00N 09°28' W 079°54'0 0.8
2018-Jul-14 19:29N 09°28' W 079°53'0 0.9
2018-Jul-14 19:00N 09°29' W 079°53'1 1.3
2018-Jul-14 18:30N 09°29' W 079°54'3 6.9
2018-Jul-14 18:00N 09°33' W 079°53'511.0
2018-Jul-14 17:30N 09°38' W 079°52'  
2018-Jul-07 04:13N 35°59' W 025°55'419.4
2018-Jul-07 04:00N 35°60' W 025°50'1019.3
2018-Jul-07 03:30N 36°02' W 025°39'1019.5
2018-Jul-07 03:00N 36°04' W 025°27'1019.5
2018-Jul-07 02:30N 36°06' W 025°15'1019.6
2018-Jul-07 02:01N 36°08' W 025°03'1019.6
2018-Jul-07 01:31N 36°10' W 024°52'1019.6
2018-Jul-07 01:00N 36°13' W 024°40'1019.3
2018-Jul-07 00:30N 36°15' W 024°28'1019.4
2018-Jul-07 00:01N 36°18' W 024°17'1019.4
2018-Jul-06 23:30N 36°20' W 024°05'1019.3
2018-Jul-06 23:00N 36°22' W 023°53'1019.4
2018-Jul-06 22:31N 36°24' W 023°41'1019.3
2018-Jul-06 22:00N 36°25' W 023°29'1019.5
2018-Jul-06 21:30N 36°27' W 023°17'1019.3
2018-Jul-06 21:01N 36°29' W 023°06'  

Dump ship's entire track history